sensor_id;sensor_type;location;lat;lon;timestamp;temperature;humidity
9437;DHT22;4757;59.334;18.034;2022-08-04T00:02:12;20.80;99.90
9437;DHT22;4757;59.334;18.034;2022-08-04T00:07:15;20.80;99.90
9437;DHT22;4757;59.334;18.034;2022-08-04T00:10:06;20.80;99.90
9437;DHT22;4757;59.334;18.034;2022-08-04T00:12:37;20.80;99.90
9437;DHT22;4757;59.334;18.034;2022-08-04T00:15:10;20.80;99.90
9437;DHT22;4757;59.334;18.034;2022-08-04T00:17:50;20.80;99.90
9437;DHT22;4757;59.334;18.034;2022-08-04T00:20:20;20.80;99.90
9437;DHT22;4757;59.334;18.034;2022-08-04T00:22:48;20.70;99.90
9437;DHT22;4757;59.334;18.034;2022-08-04T00:25:18;20.80;99.90
9437;DHT22;4757;59.334;18.034;2022-08-04T00:27:45;20.70;99.90
9437;DHT22;4757;59.334;18.034;2022-08-04T00:30:13;20.70;99.90
9437;DHT22;4757;59.334;18.034;2022-08-04T00:32:40;20.70;99.90
9437;DHT22;4757;59.334;18.034;2022-08-04T00:35:13;20.70;99.90
9437;DHT22;4757;59.334;18.034;2022-08-04T00:37:43;20.70;99.90
9437;DHT22;4757;59.334;18.034;2022-08-04T00:43:28;20.70;99.90
9437;DHT22;4757;59.334;18.034;2022-08-04T00:51:36;20.70;99.90
9437;DHT22;4757;59.334;18.034;2022-08-04T00:54:40;20.60;99.90
9437;DHT22;4757;59.334;18.034;2022-08-04T01:00:11;20.60;99.90
9437;DHT22;4757;59.334;18.034;2022-08-04T01:17:13;20.50;99.90
9437;DHT22;4757;59.334;18.034;2022-08-04T01:20:02;20.30;99.90
9437;DHT22;4757;59.334;18.034;2022-08-04T01:28:28;20.30;99.90
9437;DHT22;4757;59.334;18.034;2022-08-04T01:31:05;20.20;99.90
9437;DHT22;4757;59.334;18.034;2022-08-04T01:33:38;20.20;99.90
9437;DHT22;4757;59.334;18.034;2022-08-04T01:36:34;20.30;99.90
9437;DHT22;4757;59.334;18.034;2022-08-04T01:39:03;20.20;99.90
9437;DHT22;4757;59.334;18.034;2022-08-04T01:41:52;20.20;99.90
9437;DHT22;4757;59.334;18.034;2022-08-04T01:44:26;20.10;99.90
9437;DHT22;4757;59.334;18.034;2022-08-04T01:46:54;20.00;99.90
9437;DHT22;4757;59.334;18.034;2022-08-04T01:49:28;20.00;99.90
9437;DHT22;4757;59.334;18.034;2022-08-04T01:52:08;19.90;99.90
9437;DHT22;4757;59.334;18.034;2022-08-04T01:54:37;19.90;99.90
9437;DHT22;4757;59.334;18.034;2022-08-04T01:57:10;19.80;99.90
9437;DHT22;4757;59.334;18.034;2022-08-04T01:59:58;19.80;99.90
9437;DHT22;4757;59.334;18.034;2022-08-04T02:02:26;19.80;99.90
9437;DHT22;4757;59.334;18.034;2022-08-04T02:04:53;19.80;99.90
9437;DHT22;4757;59.334;18.034;2022-08-04T02:10:29;19.80;99.90
9437;DHT22;4757;59.334;18.034;2022-08-04T02:15:30;19.70;99.90
9437;DHT22;4757;59.334;18.034;2022-08-04T02:20:43;19.80;99.90
9437;DHT22;4757;59.334;18.034;2022-08-04T02:23:27;19.80;99.90
9437;DHT22;4757;59.334;18.034;2022-08-04T02:25:57;19.70;99.90
9437;DHT22;4757;59.334;18.034;2022-08-04T02:33:58;19.80;99.90
9437;DHT22;4757;59.334;18.034;2022-08-04T02:36:34;19.70;99.90
9437;DHT22;4757;59.334;18.034;2022-08-04T02:39:04;19.70;99.90
9437;DHT22;4757;59.334;18.034;2022-08-04T02:41:32;19.70;99.90
9437;DHT22;4757;59.334;18.034;2022-08-04T02:44:02;19.60;99.90
9437;DHT22;4757;59.334;18.034;2022-08-04T02:46:31;19.60;99.90
9437;DHT22;4757;59.334;18.034;2022-08-04T02:49:02;19.60;99.90
9437;DHT22;4757;59.334;18.034;2022-08-04T02:51:32;19.60;99.90
9437;DHT22;4757;59.334;18.034;2022-08-04T02:54:03;19.60;99.90
9437;DHT22;4757;59.334;18.034;2022-08-04T02:56:34;19.60;99.90
9437;DHT22;4757;59.334;18.034;2022-08-04T02:59:08;19.60;99.90
9437;DHT22;4757;59.334;18.034;2022-08-04T03:01:36;19.60;99.90
9437;DHT22;4757;59.334;18.034;2022-08-04T03:12:47;19.60;99.90
9437;DHT22;4757;59.334;18.034;2022-08-04T03:25:07;20.00;99.90
9437;DHT22;4757;59.334;18.034;2022-08-04T03:30:39;20.20;99.90
9437;DHT22;4757;59.334;18.034;2022-08-04T03:35:51;20.30;99.90
9437;DHT22;4757;59.334;18.034;2022-08-04T03:41:32;20.50;99.90
9437;DHT22;4757;59.334;18.034;2022-08-04T03:47:31;20.50;99.90
9437;DHT22;4757;59.334;18.034;2022-08-04T03:50:34;20.60;99.90
9437;DHT22;4757;59.334;18.034;2022-08-04T04:01:42;20.60;99.90
9437;DHT22;4757;59.334;18.034;2022-08-04T04:13:19;20.70;99.90
9437;DHT22;4757;59.334;18.034;2022-08-04T04:24:37;20.70;99.90
9437;DHT22;4757;59.334;18.034;2022-08-04T04:30:31;20.70;99.90
9437;DHT22;4757;59.334;18.034;2022-08-04T04:33:24;20.80;99.90
9437;DHT22;4757;59.334;18.034;2022-08-04T04:49:28;21.00;99.90
9437;DHT22;4757;59.334;18.034;2022-08-04T04:52:08;21.00;99.90
9437;DHT22;4757;59.334;18.034;2022-08-04T04:57:38;21.00;99.90
9437;DHT22;4757;59.334;18.034;2022-08-04T05:00:23;21.00;99.90
9437;DHT22;4757;59.334;18.034;2022-08-04T05:14:26;21.00;99.90
9437;DHT22;4757;59.334;18.034;2022-08-04T05:17:20;21.10;99.90
9437;DHT22;4757;59.334;18.034;2022-08-04T05:25:50;21.20;99.90
9437;DHT22;4757;59.334;18.034;2022-08-04T05:29:01;21.30;99.90
9437;DHT22;4757;59.334;18.034;2022-08-04T05:31:33;21.20;99.90
9437;DHT22;4757;59.334;18.034;2022-08-04T05:34:14;21.20;99.90
9437;DHT22;4757;59.334;18.034;2022-08-04T05:36:50;21.20;99.90
9437;DHT22;4757;59.334;18.034;2022-08-04T05:39:27;21.20;99.90
9437;DHT22;4757;59.334;18.034;2022-08-04T05:42:00;21.20;99.90
9437;DHT22;4757;59.334;18.034;2022-08-04T05:44:32;21.20;99.90
9437;DHT22;4757;59.334;18.034;2022-08-04T05:47:00;21.40;99.90
9437;DHT22;4757;59.334;18.034;2022-08-04T05:49:30;21.50;99.90
9437;DHT22;4757;59.334;18.034;2022-08-04T05:52:02;21.50;99.90
9437;DHT22;4757;59.334;18.034;2022-08-04T05:54:31;21.50;99.90
9437;DHT22;4757;59.334;18.034;2022-08-04T05:57:02;21.40;99.90
9437;DHT22;4757;59.334;18.034;2022-08-04T05:59:31;21.50;99.90
9437;DHT22;4757;59.334;18.034;2022-08-04T06:01:59;21.60;99.90
9437;DHT22;4757;59.334;18.034;2022-08-04T06:04:34;21.50;99.90
9437;DHT22;4757;59.334;18.034;2022-08-04T06:07:01;21.60;99.90
9437;DHT22;4757;59.334;18.034;2022-08-04T06:09:29;21.70;99.90
9437;DHT22;4757;59.334;18.034;2022-08-04T06:12:03;21.70;99.90
9437;DHT22;4757;59.334;18.034;2022-08-04T06:14:37;21.80;99.90
9437;DHT22;4757;59.334;18.034;2022-08-04T06:17:07;21.80;99.90
9437;DHT22;4757;59.334;18.034;2022-08-04T06:19:55;21.80;99.90
9437;DHT22;4757;59.334;18.034;2022-08-04T06:22:45;21.80;99.90
9437;DHT22;4757;59.334;18.034;2022-08-04T06:25:16;21.90;99.90
9437;DHT22;4757;59.334;18.034;2022-08-04T06:27:47;22.00;99.90
9437;DHT22;4757;59.334;18.034;2022-08-04T06:30:15;21.90;99.90
9437;DHT22;4757;59.334;18.034;2022-08-04T06:32:46;22.00;99.90
9437;DHT22;4757;59.334;18.034;2022-08-04T06:35:18;22.10;99.90
9437;DHT22;4757;59.334;18.034;2022-08-04T06:37:46;22.30;99.90
9437;DHT22;4757;59.334;18.034;2022-08-04T06:40:20;22.40;99.90
9437;DHT22;4757;59.334;18.034;2022-08-04T06:43:00;22.40;99.90
9437;DHT22;4757;59.334;18.034;2022-08-04T06:45:28;22.30;99.90
9437;DHT22;4757;59.334;18.034;2022-08-04T06:47:57;22.40;99.90
9437;DHT22;4757;59.334;18.034;2022-08-04T06:50:26;23.20;99.90
9437;DHT22;4757;59.334;18.034;2022-08-04T06:53:13;23.70;99.90
9437;DHT22;4757;59.334;18.034;2022-08-04T06:55:48;24.80;99.90
9437;DHT22;4757;59.334;18.034;2022-08-04T06:58:19;24.80;99.90
9437;DHT22;4757;59.334;18.034;2022-08-04T07:00:47;24.80;99.90
9437;DHT22;4757;59.334;18.034;2022-08-04T07:03:17;24.10;99.90
9437;DHT22;4757;59.334;18.034;2022-08-04T07:05:48;24.40;99.90
9437;DHT22;4757;59.334;18.034;2022-08-04T07:08:15;24.00;99.90
9437;DHT22;4757;59.334;18.034;2022-08-04T07:10:44;23.90;99.90
9437;DHT22;4757;59.334;18.034;2022-08-04T07:13:11;24.40;99.90
9437;DHT22;4757;59.334;18.034;2022-08-04T07:15:42;24.20;99.90
9437;DHT22;4757;59.334;18.034;2022-08-04T07:18:10;23.80;99.90
9437;DHT22;4757;59.334;18.034;2022-08-04T07:20:42;24.20;99.90
9437;DHT22;4757;59.334;18.034;2022-08-04T07:23:10;24.80;99.90
9437;DHT22;4757;59.334;18.034;2022-08-04T07:25:44;25.40;99.90
9437;DHT22;4757;59.334;18.034;2022-08-04T07:28:36;25.00;99.90
9437;DHT22;4757;59.334;18.034;2022-08-04T07:31:04;25.00;99.90
9437;DHT22;4757;59.334;18.034;2022-08-04T07:33:32;25.60;99.90
9437;DHT22;4757;59.334;18.034;2022-08-04T07:35:59;25.80;99.90
9437;DHT22;4757;59.334;18.034;2022-08-04T07:38:38;25.50;99.90
9437;DHT22;4757;59.334;18.034;2022-08-04T07:41:20;25.40;99.90
9437;DHT22;4757;59.334;18.034;2022-08-04T07:44:04;25.00;99.90
9437;DHT22;4757;59.334;18.034;2022-08-04T07:46:31;24.80;99.90
9437;DHT22;4757;59.334;18.034;2022-08-04T07:49:01;24.40;99.90
9437;DHT22;4757;59.334;18.034;2022-08-04T07:51:30;25.20;99.90
9437;DHT22;4757;59.334;18.034;2022-08-04T07:53:58;25.50;99.90
9437;DHT22;4757;59.334;18.034;2022-08-04T07:56:26;25.90;99.90
9437;DHT22;4757;59.334;18.034;2022-08-04T07:58:54;26.20;99.90
9437;DHT22;4757;59.334;18.034;2022-08-04T08:01:25;26.20;99.90
9437;DHT22;4757;59.334;18.034;2022-08-04T08:03:55;26.20;99.90
9437;DHT22;4757;59.334;18.034;2022-08-04T08:06:23;26.40;99.90
9437;DHT22;4757;59.334;18.034;2022-08-04T08:09:02;26.80;99.90
9437;DHT22;4757;59.334;18.034;2022-08-04T08:11:51;26.90;99.90
9437;DHT22;4757;59.334;18.034;2022-08-04T08:14:38;26.70;99.90
9437;DHT22;4757;59.334;18.034;2022-08-04T08:17:06;25.90;99.90
9437;DHT22;4757;59.334;18.034;2022-08-04T08:19:34;26.00;99.90
9437;DHT22;4757;59.334;18.034;2022-08-04T08:22:02;26.10;99.90
9437;DHT22;4757;59.334;18.034;2022-08-04T08:24:34;26.10;99.90
9437;DHT22;4757;59.334;18.034;2022-08-04T08:27:04;26.20;99.90
9437;DHT22;4757;59.334;18.034;2022-08-04T08:29:36;26.60;99.90
9437;DHT22;4757;59.334;18.034;2022-08-04T08:32:06;27.00;99.90
9437;DHT22;4757;59.334;18.034;2022-08-04T08:34:37;26.80;99.90
9437;DHT22;4757;59.334;18.034;2022-08-04T08:37:25;27.20;99.90
9437;DHT22;4757;59.334;18.034;2022-08-04T09:12:32;27.90;99.90
9437;DHT22;4757;59.334;18.034;2022-08-04T09:18:46;28.00;99.90
9437;DHT22;4757;59.334;18.034;2022-08-04T09:24:08;28.70;99.90
9437;DHT22;4757;59.334;18.034;2022-08-04T09:27:01;29.10;99.90
9437;DHT22;4757;59.334;18.034;2022-08-04T09:32:22;28.20;99.90
9437;DHT22;4757;59.334;18.034;2022-08-04T09:38:09;29.00;99.90
9437;DHT22;4757;59.334;18.034;2022-08-04T09:46:38;29.50;99.90
9437;DHT22;4757;59.334;18.034;2022-08-04T09:49:15;29.60;99.90
9437;DHT22;4757;59.334;18.034;2022-08-04T09:57:44;29.80;99.90
9437;DHT22;4757;59.334;18.034;2022-08-04T10:00:15;29.10;99.90
9437;DHT22;4757;59.334;18.034;2022-08-04T10:02:48;30.00;99.90
9437;DHT22;4757;59.334;18.034;2022-08-04T10:08:28;29.90;99.90
9437;DHT22;4757;59.334;18.034;2022-08-04T10:11:13;29.90;99.90
9437;DHT22;4757;59.334;18.034;2022-08-04T10:16:34;29.80;99.90
9437;DHT22;4757;59.334;18.034;2022-08-04T10:19:25;29.60;99.90
9437;DHT22;4757;59.334;18.034;2022-08-04T10:22:26;29.40;99.90
9437;DHT22;4757;59.334;18.034;2022-08-04T10:28:40;29.90;99.90
9437;DHT22;4757;59.334;18.034;2022-08-04T10:31:14;29.40;99.90
9437;DHT22;4757;59.334;18.034;2022-08-04T10:36:27;28.70;99.90
9437;DHT22;4757;59.334;18.034;2022-08-04T10:39:13;29.00;99.90
9437;DHT22;4757;59.334;18.034;2022-08-04T10:42:08;29.30;99.90
9437;DHT22;4757;59.334;18.034;2022-08-04T10:45:02;29.40;99.90
9437;DHT22;4757;59.334;18.034;2022-08-04T10:47:36;29.50;99.90
9437;DHT22;4757;59.334;18.034;2022-08-04T10:50:04;29.80;99.90
9437;DHT22;4757;59.334;18.034;2022-08-04T10:52:50;29.60;99.90
9437;DHT22;4757;59.334;18.034;2022-08-04T10:55:32;29.70;99.90
9437;DHT22;4757;59.334;18.034;2022-08-04T10:58:25;29.20;99.90
9437;DHT22;4757;59.334;18.034;2022-08-04T11:01:32;29.30;99.90
9437;DHT22;4757;59.334;18.034;2022-08-04T11:04:35;29.80;99.90
9437;DHT22;4757;59.334;18.034;2022-08-04T11:07:03;29.70;99.90
9437;DHT22;4757;59.334;18.034;2022-08-04T11:09:32;29.50;99.90
9437;DHT22;4757;59.334;18.034;2022-08-04T11:12:08;30.00;99.90
9437;DHT22;4757;59.334;18.034;2022-08-04T11:14:37;30.10;99.90
9437;DHT22;4757;59.334;18.034;2022-08-04T11:17:34;30.10;99.90
9437;DHT22;4757;59.334;18.034;2022-08-04T11:20:28;30.30;99.90
9437;DHT22;4757;59.334;18.034;2022-08-04T11:23:10;30.40;99.90
9437;DHT22;4757;59.334;18.034;2022-08-04T11:25:57;29.80;99.90
9437;DHT22;4757;59.334;18.034;2022-08-04T11:28:48;29.90;99.90
9437;DHT22;4757;59.334;18.034;2022-08-04T11:31:35;30.40;99.90
9437;DHT22;4757;59.334;18.034;2022-08-04T11:34:20;30.40;99.90
9437;DHT22;4757;59.334;18.034;2022-08-04T11:37:10;30.50;99.90
9437;DHT22;4757;59.334;18.034;2022-08-04T11:43:00;30.30;99.90
9437;DHT22;4757;59.334;18.034;2022-08-04T11:45:37;30.10;99.90
9437;DHT22;4757;59.334;18.034;2022-08-04T11:48:12;30.40;99.90
9437;DHT22;4757;59.334;18.034;2022-08-04T11:50:49;30.70;99.90
9437;DHT22;4757;59.334;18.034;2022-08-04T11:53:22;30.70;99.90
9437;DHT22;4757;59.334;18.034;2022-08-04T11:55:52;30.40;99.90
9437;DHT22;4757;59.334;18.034;2022-08-04T11:58:34;30.50;99.90
9437;DHT22;4757;59.334;18.034;2022-08-04T12:01:10;30.90;99.90
9437;DHT22;4757;59.334;18.034;2022-08-04T12:06:44;31.00;99.90
9437;DHT22;4757;59.334;18.034;2022-08-04T12:09:51;31.10;99.90
9437;DHT22;4757;59.334;18.034;2022-08-04T12:12:36;31.10;99.90
9437;DHT22;4757;59.334;18.034;2022-08-04T12:15:30;31.10;99.90
9437;DHT22;4757;59.334;18.034;2022-08-04T12:20:41;31.40;99.90
9437;DHT22;4757;59.334;18.034;2022-08-04T12:23:37;31.50;99.90
9437;DHT22;4757;59.334;18.034;2022-08-04T12:26:08;31.70;99.90
9437;DHT22;4757;59.334;18.034;2022-08-04T12:28:40;31.20;99.90
9437;DHT22;4757;59.334;18.034;2022-08-04T12:31:45;31.40;99.90
9437;DHT22;4757;59.334;18.034;2022-08-04T12:34:20;30.90;99.90
9437;DHT22;4757;59.334;18.034;2022-08-04T12:37:05;31.00;99.90
9437;DHT22;4757;59.334;18.034;2022-08-04T12:39:37;30.80;99.90
9437;DHT22;4757;59.334;18.034;2022-08-04T12:45:28;29.80;99.90
9437;DHT22;4757;59.334;18.034;2022-08-04T12:47:59;29.80;99.90
9437;DHT22;4757;59.334;18.034;2022-08-04T12:50:27;29.70;99.90
9437;DHT22;4757;59.334;18.034;2022-08-04T12:52:56;29.30;99.90
9437;DHT22;4757;59.334;18.034;2022-08-04T12:55:31;29.20;99.90
9437;DHT22;4757;59.334;18.034;2022-08-04T12:58:01;29.30;99.90
9437;DHT22;4757;59.334;18.034;2022-08-04T13:00:35;29.20;99.90
9437;DHT22;4757;59.334;18.034;2022-08-04T13:03:14;28.90;99.90
9437;DHT22;4757;59.334;18.034;2022-08-04T13:05:42;29.20;99.90
9437;DHT22;4757;59.334;18.034;2022-08-04T13:08:12;29.90;99.90
9437;DHT22;4757;59.334;18.034;2022-08-04T13:10:42;30.40;99.90
9437;DHT22;4757;59.334;18.034;2022-08-04T13:13:16;30.80;99.90
9437;DHT22;4757;59.334;18.034;2022-08-04T13:15:54;31.10;99.90
9437;DHT22;4757;59.334;18.034;2022-08-04T13:18:23;31.80;99.90
9437;DHT22;4757;59.334;18.034;2022-08-04T13:21:18;31.80;99.90
9437;DHT22;4757;59.334;18.034;2022-08-04T13:24:13;32.00;99.60
9437;DHT22;4757;59.334;18.034;2022-08-04T13:27:03;31.40;99.90
9437;DHT22;4757;59.334;18.034;2022-08-04T13:29:46;30.90;99.90
9437;DHT22;4757;59.334;18.034;2022-08-04T13:32:35;30.90;99.90
9437;DHT22;4757;59.334;18.034;2022-08-04T13:35:02;31.50;99.90
9437;DHT22;4757;59.334;18.034;2022-08-04T13:37:35;31.70;99.90
9437;DHT22;4757;59.334;18.034;2022-08-04T13:40:04;31.60;99.90
9437;DHT22;4757;59.334;18.034;2022-08-04T13:42:33;32.30;99.90
9437;DHT22;4757;59.334;18.034;2022-08-04T13:45:02;31.50;99.90
9437;DHT22;4757;59.334;18.034;2022-08-04T13:47:34;30.90;99.90
9437;DHT22;4757;59.334;18.034;2022-08-04T13:50:11;30.40;99.90
9437;DHT22;4757;59.334;18.034;2022-08-04T13:52:40;30.60;99.90
9437;DHT22;4757;59.334;18.034;2022-08-04T13:55:18;31.10;99.90
9437;DHT22;4757;59.334;18.034;2022-08-04T13:57:49;30.90;99.90
9437;DHT22;4757;59.334;18.034;2022-08-04T14:00:16;31.20;99.90
9437;DHT22;4757;59.334;18.034;2022-08-04T14:03:01;31.00;99.90
9437;DHT22;4757;59.334;18.034;2022-08-04T14:11:13;31.00;99.90
9437;DHT22;4757;59.334;18.034;2022-08-04T14:14:11;31.10;99.90
9437;DHT22;4757;59.334;18.034;2022-08-04T14:19:23;30.40;99.90
9437;DHT22;4757;59.334;18.034;2022-08-04T14:21:56;31.00;99.90
9437;DHT22;4757;59.334;18.034;2022-08-04T14:24:25;31.00;99.90
9437;DHT22;4757;59.334;18.034;2022-08-04T14:26:59;30.90;99.90
9437;DHT22;4757;59.334;18.034;2022-08-04T14:29:35;30.60;99.90
9437;DHT22;4757;59.334;18.034;2022-08-04T14:32:04;30.60;99.90
9437;DHT22;4757;59.334;18.034;2022-08-04T14:34:42;30.20;99.90
9437;DHT22;4757;59.334;18.034;2022-08-04T14:37:15;29.20;99.90
9437;DHT22;4757;59.334;18.034;2022-08-04T14:39:49;28.90;99.90
9437;DHT22;4757;59.334;18.034;2022-08-04T14:42:45;28.70;99.90
9437;DHT22;4757;59.334;18.034;2022-08-04T14:45:39;28.80;99.90
9437;DHT22;4757;59.334;18.034;2022-08-04T14:48:21;28.90;99.90
9437;DHT22;4757;59.334;18.034;2022-08-04T14:50:50;28.70;99.90
9437;DHT22;4757;59.334;18.034;2022-08-04T14:53:21;28.10;99.90
9437;DHT22;4757;59.334;18.034;2022-08-04T14:55:51;27.50;99.90
9437;DHT22;4757;59.334;18.034;2022-08-04T14:58:29;27.40;99.90
9437;DHT22;4757;59.334;18.034;2022-08-04T15:01:06;27.50;99.90
9437;DHT22;4757;59.334;18.034;2022-08-04T15:03:44;27.60;99.90
9437;DHT22;4757;59.334;18.034;2022-08-04T15:06:23;27.50;99.90
9437;DHT22;4757;59.334;18.034;2022-08-04T15:08:53;27.30;99.90
9437;DHT22;4757;59.334;18.034;2022-08-04T15:11:21;27.00;99.90
9437;DHT22;4757;59.334;18.034;2022-08-04T15:13:51;27.00;99.90
9437;DHT22;4757;59.334;18.034;2022-08-04T15:16:20;27.10;99.90
9437;DHT22;4757;59.334;18.034;2022-08-04T15:18:47;26.90;99.90
9437;DHT22;4757;59.334;18.034;2022-08-04T15:21:16;27.00;99.90
9437;DHT22;4757;59.334;18.034;2022-08-04T15:23:44;27.10;99.90
9437;DHT22;4757;59.334;18.034;2022-08-04T15:26:15;27.30;99.90
9437;DHT22;4757;59.334;18.034;2022-08-04T15:28:49;26.80;99.90
9437;DHT22;4757;59.334;18.034;2022-08-04T15:31:19;26.90;99.90
9437;DHT22;4757;59.334;18.034;2022-08-04T15:34:07;26.80;99.90
9437;DHT22;4757;59.334;18.034;2022-08-04T15:36:41;26.90;99.90
9437;DHT22;4757;59.334;18.034;2022-08-04T15:40:07;27.10;99.90
9437;DHT22;4757;59.334;18.034;2022-08-04T15:42:42;27.00;99.90
9437;DHT22;4757;59.334;18.034;2022-08-04T15:50:30;27.80;99.90
9437;DHT22;4757;59.334;18.034;2022-08-04T15:52:59;27.30;99.90
9437;DHT22;4757;59.334;18.034;2022-08-04T15:55:42;27.50;99.90
9437;DHT22;4757;59.334;18.034;2022-08-04T15:58:11;27.50;99.90
9437;DHT22;4757;59.334;18.034;2022-08-04T16:09:01;27.70;99.90
9437;DHT22;4757;59.334;18.034;2022-08-04T16:16:28;26.90;99.90
9437;DHT22;4757;59.334;18.034;2022-08-04T16:19:10;26.60;99.90
9437;DHT22;4757;59.334;18.034;2022-08-04T16:24:21;26.50;99.90
9437;DHT22;4757;59.334;18.034;2022-08-04T16:26:54;26.40;99.90
9437;DHT22;4757;59.334;18.034;2022-08-04T16:29:42;26.10;99.90
9437;DHT22;4757;59.334;18.034;2022-08-04T16:32:18;26.30;99.90
9437;DHT22;4757;59.334;18.034;2022-08-04T16:37:41;26.40;99.90
9437;DHT22;4757;59.334;18.034;2022-08-04T16:40:24;25.90;99.90
9437;DHT22;4757;59.334;18.034;2022-08-04T16:51:09;26.30;99.90
9437;DHT22;4757;59.334;18.034;2022-08-04T16:53:44;26.10;99.90
9437;DHT22;4757;59.334;18.034;2022-08-04T16:56:31;26.20;99.90
9437;DHT22;4757;59.334;18.034;2022-08-04T16:59:11;25.80;99.90
9437;DHT22;4757;59.334;18.034;2022-08-04T17:01:47;25.90;99.90
9437;DHT22;4757;59.334;18.034;2022-08-04T17:04:15;25.90;99.90
9437;DHT22;4757;59.334;18.034;2022-08-04T17:06:43;25.80;99.90
9437;DHT22;4757;59.334;18.034;2022-08-04T17:09:15;25.70;99.90
9437;DHT22;4757;59.334;18.034;2022-08-04T17:11:44;25.60;99.90
9437;DHT22;4757;59.334;18.034;2022-08-04T17:14:12;25.40;99.90
9437;DHT22;4757;59.334;18.034;2022-08-04T17:16:41;25.20;99.90
9437;DHT22;4757;59.334;18.034;2022-08-04T17:19:10;24.90;99.90
9437;DHT22;4757;59.334;18.034;2022-08-04T17:22:05;25.10;99.90
9437;DHT22;4757;59.334;18.034;2022-08-04T17:24:37;25.10;99.90
9437;DHT22;4757;59.334;18.034;2022-08-04T17:27:06;24.90;99.90
9437;DHT22;4757;59.334;18.034;2022-08-04T17:29:54;25.00;99.90
9437;DHT22;4757;59.334;18.034;2022-08-04T17:32:21;24.80;99.90
9437;DHT22;4757;59.334;18.034;2022-08-04T17:34:52;24.90;99.90
9437;DHT22;4757;59.334;18.034;2022-08-04T17:37:23;24.80;99.90
9437;DHT22;4757;59.334;18.034;2022-08-04T17:40:14;24.60;99.90
9437;DHT22;4757;59.334;18.034;2022-08-04T17:43:04;24.50;99.90
9437;DHT22;4757;59.334;18.034;2022-08-04T17:46:23;24.60;99.90
9437;DHT22;4757;59.334;18.034;2022-08-04T17:51:35;24.60;99.90
9437;DHT22;4757;59.334;18.034;2022-08-04T17:57:18;24.30;99.90
9437;DHT22;4757;59.334;18.034;2022-08-04T17:59:55;24.20;99.90
9437;DHT22;4757;59.334;18.034;2022-08-04T18:02:26;24.30;99.90
9437;DHT22;4757;59.334;18.034;2022-08-04T18:05:03;24.40;99.90
9437;DHT22;4757;59.334;18.034;2022-08-04T18:07:39;24.30;99.90
9437;DHT22;4757;59.334;18.034;2022-08-04T18:10:48;24.10;99.90
9437;DHT22;4757;59.334;18.034;2022-08-04T18:13:25;24.10;99.90
9437;DHT22;4757;59.334;18.034;2022-08-04T18:16:03;23.90;99.90
9437;DHT22;4757;59.334;18.034;2022-08-04T18:18:30;23.90;99.90
9437;DHT22;4757;59.334;18.034;2022-08-04T18:20:58;23.90;99.90
9437;DHT22;4757;59.334;18.034;2022-08-04T18:23:30;23.90;99.90
9437;DHT22;4757;59.334;18.034;2022-08-04T18:25:59;24.00;99.90
9437;DHT22;4757;59.334;18.034;2022-08-04T18:28:29;24.00;99.90
9437;DHT22;4757;59.334;18.034;2022-08-04T18:30:59;23.90;99.90
9437;DHT22;4757;59.334;18.034;2022-08-04T18:33:26;23.90;99.90
9437;DHT22;4757;59.334;18.034;2022-08-04T18:36:10;23.80;99.90
9437;DHT22;4757;59.334;18.034;2022-08-04T18:39:02;23.70;99.90
9437;DHT22;4757;59.334;18.034;2022-08-04T18:41:40;23.70;99.90
9437;DHT22;4757;59.334;18.034;2022-08-04T18:44:28;23.60;99.90
9437;DHT22;4757;59.334;18.034;2022-08-04T18:46:57;23.70;99.90
9437;DHT22;4757;59.334;18.034;2022-08-04T18:49:44;23.70;99.90
9437;DHT22;4757;59.334;18.034;2022-08-04T18:52:31;23.70;99.90
9437;DHT22;4757;59.334;18.034;2022-08-04T18:54:59;23.70;99.90
9437;DHT22;4757;59.334;18.034;2022-08-04T18:57:29;23.70;99.90
9437;DHT22;4757;59.334;18.034;2022-08-04T19:00:16;23.50;99.90
9437;DHT22;4757;59.334;18.034;2022-08-04T19:02:45;23.60;99.90
9437;DHT22;4757;59.334;18.034;2022-08-04T19:05:13;23.70;99.90
9437;DHT22;4757;59.334;18.034;2022-08-04T19:07:43;23.70;99.90
9437;DHT22;4757;59.334;18.034;2022-08-04T19:10:30;23.70;99.90
9437;DHT22;4757;59.334;18.034;2022-08-04T19:13:00;23.70;99.90
9437;DHT22;4757;59.334;18.034;2022-08-04T19:15:27;23.70;99.90
9437;DHT22;4757;59.334;18.034;2022-08-04T19:18:00;23.60;99.90
9437;DHT22;4757;59.334;18.034;2022-08-04T19:20:32;23.50;99.90
9437;DHT22;4757;59.334;18.034;2022-08-04T19:23:05;23.40;99.90
9437;DHT22;4757;59.334;18.034;2022-08-04T19:25:52;23.30;99.90
9437;DHT22;4757;59.334;18.034;2022-08-04T19:28:32;23.40;99.90
9437;DHT22;4757;59.334;18.034;2022-08-04T19:31:05;23.30;99.90
9437;DHT22;4757;59.334;18.034;2022-08-04T19:33:33;23.20;99.90
9437;DHT22;4757;59.334;18.034;2022-08-04T19:36:20;23.20;99.90
9437;DHT22;4757;59.334;18.034;2022-08-04T19:38:58;23.20;99.90
9437;DHT22;4757;59.334;18.034;2022-08-04T19:41:27;23.10;99.90
9437;DHT22;4757;59.334;18.034;2022-08-04T19:43:56;23.10;99.90
9437;DHT22;4757;59.334;18.034;2022-08-04T19:46:23;23.10;99.90
9437;DHT22;4757;59.334;18.034;2022-08-04T19:48:54;23.10;99.90
9437;DHT22;4757;59.334;18.034;2022-08-04T19:51:27;23.10;99.90
9437;DHT22;4757;59.334;18.034;2022-08-04T19:53:55;23.10;99.90
9437;DHT22;4757;59.334;18.034;2022-08-04T19:56:36;23.10;99.90
9437;DHT22;4757;59.334;18.034;2022-08-04T19:59:07;23.10;99.90
9437;DHT22;4757;59.334;18.034;2022-08-04T20:01:34;23.10;99.90
9437;DHT22;4757;59.334;18.034;2022-08-04T20:04:21;23.00;99.90
9437;DHT22;4757;59.334;18.034;2022-08-04T20:06:48;23.00;99.90
9437;DHT22;4757;59.334;18.034;2022-08-04T20:09:19;23.00;99.90
9437;DHT22;4757;59.334;18.034;2022-08-04T20:11:52;23.00;99.90
9437;DHT22;4757;59.334;18.034;2022-08-04T20:14:20;22.90;99.90
9437;DHT22;4757;59.334;18.034;2022-08-04T20:17:00;22.90;99.90
9437;DHT22;4757;59.334;18.034;2022-08-04T20:19:27;22.90;99.90
9437;DHT22;4757;59.334;18.034;2022-08-04T20:21:56;22.80;99.90
9437;DHT22;4757;59.334;18.034;2022-08-04T20:24:23;22.80;99.90
9437;DHT22;4757;59.334;18.034;2022-08-04T20:27:08;22.80;99.90
9437;DHT22;4757;59.334;18.034;2022-08-04T20:29:49;22.70;99.90
9437;DHT22;4757;59.334;18.034;2022-08-04T20:32:23;22.70;99.90
9437;DHT22;4757;59.334;18.034;2022-08-04T20:34:52;22.70;99.90
9437;DHT22;4757;59.334;18.034;2022-08-04T20:37:20;22.60;99.90
9437;DHT22;4757;59.334;18.034;2022-08-04T20:40:11;22.60;99.90
9437;DHT22;4757;59.334;18.034;2022-08-04T20:42:39;22.60;99.90
9437;DHT22;4757;59.334;18.034;2022-08-04T20:45:10;22.60;99.90
9437;DHT22;4757;59.334;18.034;2022-08-04T20:47:43;22.50;99.90
9437;DHT22;4757;59.334;18.034;2022-08-04T20:50:19;22.50;99.90
9437;DHT22;4757;59.334;18.034;2022-08-04T20:52:56;22.50;99.90
9437;DHT22;4757;59.334;18.034;2022-08-04T20:55:24;22.50;99.90
9437;DHT22;4757;59.334;18.034;2022-08-04T20:57:55;22.60;99.90
9437;DHT22;4757;59.334;18.034;2022-08-04T21:00:29;22.50;99.90
9437;DHT22;4757;59.334;18.034;2022-08-04T21:02:57;22.50;99.90
9437;DHT22;4757;59.334;18.034;2022-08-04T21:05:25;22.40;99.90
9437;DHT22;4757;59.334;18.034;2022-08-04T21:07:53;22.50;99.90
9437;DHT22;4757;59.334;18.034;2022-08-04T21:10:25;22.60;99.90